createdAt,value
2023-03-23T15:58:45.653Z,44.62
2023-03-23T16:01:13.951Z,44.89
2023-03-23T16:03:49.036Z,44.55
2023-03-23T16:06:23.401Z,44.60
2023-03-23T16:08:54.917Z,44.67
2023-03-23T16:11:22.719Z,44.72
2023-03-23T16:13:49.606Z,44.63
2023-03-23T16:16:19.354Z,44.57
2023-03-23T16:18:45.917Z,44.81
2023-03-23T16:21:12.652Z,44.87
2023-03-23T16:23:40.804Z,44.64
2023-03-23T16:26:07.397Z,44.65
2023-03-23T16:28:33.887Z,44.81
2023-03-23T16:31:00.627Z,44.75
2023-03-23T16:33:27.273Z,44.63
2023-03-23T16:35:53.894Z,44.83
2023-03-23T16:38:20.488Z,44.79
2023-03-23T16:40:47.462Z,44.96
2023-03-23T16:43:14.172Z,44.79
2023-03-23T16:45:44.090Z,44.99
2023-03-23T16:48:12.513Z,44.92
2023-03-23T16:50:39.385Z,44.86
2023-03-23T16:53:08.076Z,44.90
2023-03-23T16:55:36.806Z,44.92
2023-03-23T16:58:15.430Z,45.03
2023-03-23T17:00:44.234Z,45.10
2023-03-23T17:03:11.384Z,45.04
2023-03-23T17:05:38.100Z,45.19
2023-03-23T17:08:05.330Z,45.15
2023-03-23T17:10:32.298Z,45.15
2023-03-23T17:12:59.035Z,45.03
2023-03-23T17:15:25.850Z,45.02
2023-03-23T17:17:53.050Z,45.07
2023-03-23T17:20:20.079Z,45.06
2023-03-23T17:22:46.882Z,45.01
2023-03-23T17:25:13.808Z,45.17
2023-03-23T17:27:41.130Z,45.15
2023-03-23T17:30:08.964Z,45.13
2023-03-23T17:32:36.699Z,45.17
2023-03-23T17:35:05.580Z,45.24
2023-03-23T17:37:33.309Z,45.31
2023-03-23T17:40:00.184Z,45.40
2023-03-23T17:42:27.158Z,45.26
2023-03-23T17:44:53.751Z,45.31
2023-03-23T17:47:20.576Z,45.55
2023-03-23T17:49:47.881Z,45.37
2023-03-23T17:52:14.585Z,45.68
2023-03-23T17:54:41.229Z,45.54
2023-03-23T17:57:07.928Z,45.68
2023-03-23T17:59:34.552Z,45.58
2023-03-23T18:02:01.129Z,45.75
2023-03-23T18:04:28.082Z,45.74
2023-03-23T18:06:56.651Z,45.89
2023-03-23T18:09:25.209Z,45.81
2023-03-23T18:11:52.635Z,45.68
2023-03-23T18:14:19.281Z,45.61
2023-03-23T18:16:46.109Z,46.06
2023-03-23T18:19:12.725Z,45.91
2023-03-23T18:21:39.343Z,45.97
2023-03-23T18:24:06.316Z,45.75
2023-03-23T18:26:32.878Z,45.75
2023-03-23T18:28:59.618Z,45.85
2023-03-23T18:31:26.288Z,45.67
2023-03-23T18:33:55.016Z,45.68
2023-03-23T18:36:24.163Z,45.86
2023-03-23T18:38:51.099Z,45.74
2023-03-23T18:41:18.637Z,45.89
2023-03-23T18:43:46.146Z,45.79
2023-03-23T18:46:12.758Z,45.86
2023-03-23T18:48:39.341Z,45.70
2023-03-23T18:51:06.236Z,45.88
2023-03-23T18:53:33.138Z,45.66
2023-03-23T18:56:09.157Z,45.54
2023-03-23T18:58:35.985Z,45.62
2023-03-23T19:01:07.476Z,45.64
2023-03-23T19:03:40.895Z,45.71
2023-03-23T19:06:16.354Z,45.73
2023-03-23T19:08:43.295Z,45.71
2023-03-23T19:11:12.301Z,45.75
2023-03-23T19:13:42.144Z,45.74
2023-03-23T19:16:14.116Z,45.63
2023-03-23T19:18:40.705Z,45.66
2023-03-23T19:21:14.936Z,45.78
2023-03-23T19:23:43.599Z,45.72
2023-03-23T19:26:21.839Z,45.90
2023-03-23T19:29:23.158Z,45.74
2023-03-23T19:31:34.950Z,45.80
2023-03-23T19:34:01.530Z,45.67
2023-03-23T19:36:28.157Z,45.85
2023-03-23T19:38:55.064Z,45.65
2023-03-23T19:41:22.000Z,45.89
2023-03-23T19:43:48.575Z,45.71
2023-03-23T19:46:15.822Z,45.77
2023-03-23T19:48:42.752Z,45.80
2023-03-23T19:51:11.917Z,45.88
2023-03-23T19:53:39.607Z,45.76
2023-03-23T19:56:12.778Z,45.61
2023-03-23T19:58:39.702Z,45.59
2023-03-23T20:01:06.945Z,45.65
2023-03-23T20:03:33.548Z,45.66
2023-03-23T20:06:07.236Z,45.72
2023-03-23T20:08:34.028Z,45.75
2023-03-23T20:11:05.242Z,45.60
2023-03-23T20:13:32.911Z,45.76
2023-03-23T20:16:00.893Z,45.55
2023-03-23T20:18:29.174Z,45.61
2023-03-23T20:21:07.468Z,45.56
2023-03-23T20:23:35.033Z,45.57
2023-03-23T20:26:06.687Z,45.58
2023-03-23T20:28:33.645Z,45.57
2023-03-23T20:31:19.822Z,45.55
2023-03-23T20:33:59.814Z,45.50
2023-03-23T20:36:34.766Z,45.52
2023-03-23T20:39:11.279Z,45.39
2023-03-23T20:41:38.911Z,45.54
2023-03-23T20:44:07.512Z,45.60
2023-03-23T20:46:35.252Z,45.30
2023-03-23T20:49:02.336Z,45.38
2023-03-23T20:51:28.849Z,45.51
2023-03-23T20:53:55.684Z,45.34
2023-03-23T20:56:22.492Z,45.28
2023-03-23T20:58:49.333Z,45.30
2023-03-23T21:01:16.007Z,45.46
2023-03-23T21:03:43.917Z,45.42
2023-03-23T21:06:10.866Z,45.32
2023-03-23T21:08:39.248Z,45.29
2023-03-23T21:11:08.212Z,45.52
2023-03-23T21:13:34.962Z,45.54
2023-03-23T21:16:04.019Z,45.45
2023-03-23T21:18:31.242Z,45.63
2023-03-23T21:20:58.378Z,45.53
2023-03-23T21:23:26.883Z,45.50
2023-03-23T21:25:54.584Z,45.76
2023-03-23T21:28:22.052Z,45.62
2023-03-23T21:30:49.432Z,45.72
2023-03-23T21:33:17.028Z,45.67
2023-03-23T21:35:43.555Z,45.61
2023-03-23T21:38:14.483Z,45.66
2023-03-23T21:40:44.820Z,45.65
2023-03-23T21:43:14.892Z,45.64
2023-03-23T21:45:42.806Z,45.59
2023-03-23T21:48:10.842Z,45.53
2023-03-23T21:50:42.176Z,45.68
2023-03-23T21:53:12.895Z,45.66
2023-03-23T21:55:44.864Z,45.54
2023-03-23T21:58:11.638Z,45.63
2023-03-23T22:00:38.163Z,45.51
2023-03-23T22:03:04.852Z,45.54
2023-03-23T22:05:32.230Z,45.41
2023-03-23T22:07:58.834Z,45.41
2023-03-23T22:10:25.392Z,45.37
2023-03-23T22:12:54.998Z,45.27
2023-03-23T22:15:27.793Z,45.36
2023-03-23T22:17:55.559Z,45.40
2023-03-23T22:20:22.520Z,45.32
2023-03-23T22:22:49.229Z,45.72
2023-03-23T22:25:15.832Z,45.39
2023-03-23T22:27:42.803Z,45.40
2023-03-23T22:30:09.780Z,45.34
2023-03-23T22:32:36.482Z,45.21
2023-03-23T22:35:04.966Z,45.19
2023-03-23T22:37:31.622Z,45.34
2023-03-23T22:39:58.143Z,45.20
2023-03-23T22:42:25.069Z,45.38
2023-03-23T22:44:51.643Z,45.33
2023-03-23T22:47:18.322Z,45.16
2023-03-23T22:49:44.957Z,45.14
2023-03-23T22:52:11.528Z,45.24
2023-03-23T22:54:38.148Z,45.11
2023-03-23T22:57:04.707Z,45.03
2023-03-23T22:59:31.318Z,45.02
2023-03-23T23:01:57.945Z,45.16
2023-03-23T23:04:24.696Z,45.03
2023-03-23T23:06:57.477Z,45.09
2023-03-23T23:09:29.608Z,45.20
2023-03-23T23:11:56.265Z,44.98
2023-03-23T23:14:22.791Z,45.00
2023-03-23T23:16:49.395Z,45.12
2023-03-23T23:19:16.075Z,44.95
2023-03-23T23:21:42.595Z,45.01
2023-03-23T23:24:09.175Z,44.99
2023-03-23T23:26:36.527Z,44.96
2023-03-23T23:29:04.013Z,44.92
2023-03-23T23:31:33.545Z,45.00
2023-03-23T23:34:01.491Z,44.92
2023-03-23T23:36:30.318Z,44.99
2023-03-23T23:38:58.693Z,44.89
2023-03-23T23:41:27.521Z,44.85
2023-03-23T23:43:54.110Z,44.93
2023-03-23T23:46:20.913Z,44.97
2023-03-23T23:48:47.533Z,45.01
2023-03-23T23:51:15.348Z,45.04
2023-03-23T23:53:46.256Z,44.94
2023-03-23T23:56:14.112Z,45.01
2023-03-23T23:58:40.842Z,44.94
